Time;durP1;ratioP1;P1;durP2;ratioP2;P2;SDS_P1;SDS_P2;PMS_P1;PMS_P2;Temp;Humidity;BMP_temperature;BMP_pressure;BME280_temperature;BME280_humidity;BME280_pressure;Samples;Min_cycle;Max_cycle;Signal;HPM_P1;HPM_P2
2023/10/15 00:01:32;;;;;;;;;;;7.70;99.90;;;;;;4865081;29;19939;-84
2023/10/15 00:03:58;;;;;;;;;;;7.70;99.90;;;;;;4863497;29;19976;-81
2023/10/15 00:06:23;;;;;;;;;;;7.70;99.90;;;;;;4863183;29;19932;-81
2023/10/15 00:08:50;;;;;;;;;;;7.60;99.90;;;;;;4863719;29;19935;-82
2023/10/15 00:11:21;;;;;;;;;;;7.60;99.90;;;;;;4863177;29;20295;-82
2023/10/15 00:13:47;;;;;;;;;;;7.60;99.90;;;;;;4864463;29;19957;-82
2023/10/15 00:16:16;;;;;;;;;;;7.60;99.90;;;;;;4864305;29;19935;-82
2023/10/15 00:18:42;;;;;;;;;;;7.60;99.90;;;;;;4864087;29;19928;-82
2023/10/15 00:21:12;;;;;;;;;;;7.60;99.90;;;;;;4863545;29;20428;-83
2023/10/15 00:23:39;;;;;;;;;;;7.60;99.90;;;;;;4864093;29;20068;-82
2023/10/15 00:26:04;;;;;;;;;;;7.60;99.90;;;;;;4864148;29;19934;-82
2023/10/15 00:28:30;;;;;;;;;;;7.60;99.90;;;;;;4864010;29;20026;-81
2023/10/15 00:30:56;;;;;;;;;;;7.70;99.90;;;;;;4862810;29;19936;-81
2023/10/15 00:33:21;;;;;;;;;;;7.70;99.90;;;;;;4863239;29;19935;-82
2023/10/15 00:35:53;;;;;;;;;;;7.70;99.90;;;;;;4863342;29;20406;-82
2023/10/15 00:38:19;;;;;;;;;;;7.70;99.90;;;;;;4863920;29;19935;-82
2023/10/15 00:40:53;;;;;;;;;;;7.70;99.90;;;;;;4863862;29;19928;-81
2023/10/15 00:43:19;;;;;;;;;;;7.70;99.90;;;;;;4863663;29;19940;-81
2023/10/15 00:45:45;;;;;;;;;;;7.70;99.90;;;;;;4863397;29;20261;-82
2023/10/15 00:48:36;;;;;;;;;;;7.60;99.90;;;;;;4862736;29;19928;-81
2023/10/15 00:51:13;;;;;;;;;;;7.70;99.90;;;;;;4863098;29;19984;-81
2023/10/15 00:53:51;;;;;;;;;;;7.70;99.90;;;;;;4863645;29;20080;-81
2023/10/15 00:56:25;;;;;;;;;;;7.60;99.90;;;;;;4862456;29;19933;-84
2023/10/15 01:03:48;;;;;;;;;;;7.70;99.90;;;;;;4863624;29;19928;-82
2023/10/15 01:06:15;;;;;;;;;;;7.70;99.90;;;;;;4863227;29;19935;-81
2023/10/15 01:08:42;;;;;;;;;;;7.70;99.90;;;;;;4863411;29;19935;-81
2023/10/15 01:11:11;;;;;;;;;;;7.70;99.90;;;;;;4863325;29;19936;-81
2023/10/15 01:13:37;;;;;;;;;;;7.70;99.90;;;;;;4863320;29;19984;-81
2023/10/15 01:16:05;;;;;;;;;;;7.70;99.90;;;;;;4863085;29;20363;-83
2023/10/15 01:18:31;;;;;;;;;;;7.70;99.90;;;;;;4846936;29;19928;-82
2023/10/15 01:21:01;;;;;;;;;;;7.70;99.90;;;;;;4863980;29;19984;-82
2023/10/15 01:23:43;;;;;;;;;;;7.70;99.90;;;;;;4862170;29;19943;-81
2023/10/15 01:26:23;;;;;;;;;;;7.60;99.90;;;;;;4863316;29;20345;-84
2023/10/15 01:28:51;;;;;;;;;;;7.60;99.90;;;;;;4862270;29;20264;-82
2023/10/15 01:31:17;;;;;;;;;;;7.60;99.90;;;;;;4862951;29;20342;-84
2023/10/15 01:33:49;;;;;;;;;;;7.60;99.90;;;;;;4862866;29;19928;-82
2023/10/15 01:36:27;;;;;;;;;;;7.50;99.90;;;;;;4863304;29;20334;-83
2023/10/15 01:38:57;;;;;;;;;;;7.50;99.90;;;;;;4863241;29;20311;-82
2023/10/15 01:41:25;;;;;;;;;;;7.50;99.90;;;;;;4863458;29;20007;-82
2023/10/15 01:43:56;;;;;;;;;;;7.50;99.90;;;;;;4861672;29;20356;-81
2023/10/15 01:49:07;;;;;;;;;;;7.50;99.90;;;;;;4863134;29;19929;-82
2023/10/15 01:51:39;;;;;;;;;;;7.50;99.90;;;;;;4862376;29;19929;-83
2023/10/15 01:54:12;;;;;;;;;;;7.40;99.90;;;;;;4862705;29;19929;-82
2023/10/15 01:56:37;;;;;;;;;;;7.40;99.90;;;;;;4863323;29;19932;-81
2023/10/15 01:59:08;;;;;;;;;;;7.30;99.90;;;;;;4862229;29;20426;-84
2023/10/15 02:01:37;;;;;;;;;;;7.30;99.90;;;;;;4863312;29;19928;-82
2023/10/15 02:04:06;;;;;;;;;;;7.30;99.90;;;;;;4861526;29;20357;-81
2023/10/15 02:06:42;;;;;;;;;;;7.20;99.90;;;;;;4862292;29;19932;-82
2023/10/15 02:09:12;;;;;;;;;;;7.20;99.90;;;;;;4862369;29;19943;-81
2023/10/15 02:11:47;;;;;;;;;;;7.20;99.90;;;;;;4861617;29;19986;-81
2023/10/15 02:14:20;;;;;;;;;;;7.20;99.90;;;;;;4861381;29;19928;-85
2023/10/15 02:16:49;;;;;;;;;;;7.20;99.90;;;;;;4861219;29;19928;-82
2023/10/15 02:19:40;;;;;;;;;;;7.20;99.90;;;;;;4862059;29;19935;-85
2023/10/15 02:22:06;;;;;;;;;;;7.10;99.90;;;;;;4862093;29;19929;-82
2023/10/15 02:24:34;;;;;;;;;;;7.10;99.90;;;;;;4861115;29;19938;-81
2023/10/15 02:27:05;;;;;;;;;;;7.00;99.90;;;;;;4861476;29;20360;-81
2023/10/15 02:31:58;;;;;;;;;;;6.90;99.90;;;;;;4862054;29;19975;-81
2023/10/15 02:34:27;;;;;;;;;;;6.90;99.90;;;;;;4862539;29;20280;-80
2023/10/15 02:36:54;;;;;;;;;;;6.90;99.90;;;;;;4860878;29;19928;-81
2023/10/15 02:39:22;;;;;;;;;;;6.80;99.90;;;;;;4862123;29;19928;-82
2023/10/15 02:41:48;;;;;;;;;;;6.80;99.90;;;;;;4861821;29;19932;-81
2023/10/15 02:44:13;;;;;;;;;;;6.80;99.90;;;;;;4861825;29;19928;-81
2023/10/15 02:46:48;;;;;;;;;;;6.70;99.90;;;;;;4861843;29;19936;-81
2023/10/15 02:49:17;;;;;;;;;;;6.70;99.90;;;;;;4861643;29;20414;-87
2023/10/15 02:51:43;;;;;;;;;;;6.70;99.90;;;;;;4860953;29;19935;-82
2023/10/15 02:56:56;;;;;;;;;;;6.60;99.90;;;;;;4862602;29;19928;-82
2023/10/15 02:59:23;;;;;;;;;;;6.60;99.90;;;;;;4861190;29;19984;-82
2023/10/15 03:01:53;;;;;;;;;;;6.50;99.90;;;;;;4861740;29;19935;-81
2023/10/15 03:04:32;;;;;;;;;;;6.50;99.90;;;;;;4860611;29;19929;-81
2023/10/15 03:07:19;;;;;;;;;;;6.50;99.90;;;;;;4847111;29;19969;-83
2023/10/15 03:09:56;;;;;;;;;;;6.40;99.90;;;;;;4861749;29;20420;-81
2023/10/15 03:12:22;;;;;;;;;;;6.40;99.90;;;;;;4861026;29;19928;-81
2023/10/15 03:14:48;;;;;;;;;;;6.30;99.90;;;;;;4861625;29;19935;-81
2023/10/15 03:17:14;;;;;;;;;;;6.30;99.90;;;;;;4860659;29;19928;-82
2023/10/15 03:19:40;;;;;;;;;;;6.30;99.90;;;;;;4860414;29;20286;-82
2023/10/15 03:22:11;;;;;;;;;;;6.30;99.90;;;;;;4860644;29;19928;-81
2023/10/15 03:24:37;;;;;;;;;;;6.30;99.90;;;;;;4860332;29;19932;-82
2023/10/15 03:27:04;;;;;;;;;;;6.30;99.90;;;;;;4860342;29;20018;-85
2023/10/15 03:29:30;;;;;;;;;;;6.30;99.90;;;;;;4861474;29;19932;-82
2023/10/15 03:32:09;;;;;;;;;;;6.30;99.90;;;;;;4860535;29;20412;-83
2023/10/15 03:34:42;;;;;;;;;;;6.30;99.90;;;;;;4861410;29;19928;-82
2023/10/15 03:37:13;;;;;;;;;;;6.20;99.90;;;;;;4861996;29;19954;-82
2023/10/15 03:42:39;;;;;;;;;;;6.20;99.90;;;;;;4861768;29;20275;-86
2023/10/15 03:45:06;;;;;;;;;;;6.30;99.90;;;;;;4857117;29;19935;-84
2023/10/15 03:47:32;;;;;;;;;;;6.30;99.90;;;;;;4861358;29;19932;-81
2023/10/15 03:50:06;;;;;;;;;;;6.40;99.90;;;;;;4862047;29;20027;-82
2023/10/15 03:52:34;;;;;;;;;;;6.50;99.90;;;;;;4860611;29;20023;-82
2023/10/15 03:55:00;;;;;;;;;;;6.40;99.90;;;;;;4861168;29;19928;-82
2023/10/15 03:57:28;;;;;;;;;;;6.40;99.90;;;;;;4861692;29;19951;-81
2023/10/15 03:59:54;;;;;;;;;;;6.30;99.90;;;;;;4861183;29;19928;-83
2023/10/15 04:02:23;;;;;;;;;;;6.30;99.90;;;;;;4859990;29;19932;-84
2023/10/15 04:05:08;;;;;;;;;;;6.30;99.90;;;;;;4860763;29;20265;-82
2023/10/15 04:07:48;;;;;;;;;;;6.20;99.90;;;;;;4860504;29;19928;-84
2023/10/15 04:10:15;;;;;;;;;;;6.20;99.90;;;;;;4861186;29;19928;-81
2023/10/15 04:12:43;;;;;;;;;;;6.10;99.90;;;;;;4863739;29;20283;-82
2023/10/15 04:15:30;;;;;;;;;;;6.10;99.90;;;;;;4864928;29;19992;-81
2023/10/15 04:17:56;;;;;;;;;;;6.00;99.90;;;;;;4865034;29;19928;-83
2023/10/15 04:20:35;;;;;;;;;;;6.00;99.90;;;;;;4863431;29;19928;-83
2023/10/15 04:23:01;;;;;;;;;;;6.00;99.90;;;;;;4849553;29;19982;-82
2023/10/15 04:25:32;;;;;;;;;;;6.00;99.90;;;;;;4863795;29;19971;-83
2023/10/15 04:28:08;;;;;;;;;;;6.00;99.90;;;;;;4864140;29;20368;-81
2023/10/15 04:30:36;;;;;;;;;;;5.90;99.90;;;;;;4864082;29;19932;-82
2023/10/15 04:33:10;;;;;;;;;;;5.90;99.90;;;;;;4863260;29;19935;-82
2023/10/15 04:35:37;;;;;;;;;;;5.90;99.90;;;;;;4864897;29;19935;-81
2023/10/15 04:38:06;;;;;;;;;;;5.80;99.90;;;;;;4862918;29;19928;-83
2023/10/15 04:41:21;;;;;;;;;;;5.80;99.90;;;;;;4864040;29;20026;-81
2023/10/15 04:43:27;;;;;;;;;;;5.80;99.90;;;;;;4857111;29;20031;-82
2023/10/15 04:45:56;;;;;;;;;;;5.80;99.90;;;;;;4863866;29;19928;-83
2023/10/15 04:48:32;;;;;;;;;;;5.80;99.90;;;;;;4863069;29;20321;-82
2023/10/15 04:51:13;;;;;;;;;;;6.00;99.90;;;;;;4863360;29;20299;-82
2023/10/15 04:53:44;;;;;;;;;;;6.00;99.90;;;;;;4864016;29;19996;-81
2023/10/15 04:56:10;;;;;;;;;;;6.10;99.90;;;;;;4864421;29;19928;-82
2023/10/15 04:58:36;;;;;;;;;;;6.10;99.90;;;;;;4863682;29;19928;-82
2023/10/15 05:01:04;;;;;;;;;;;6.30;99.90;;;;;;4863764;29;20399;-82
2023/10/15 05:03:31;;;;;;;;;;;6.30;99.90;;;;;;4863596;29;19979;-82
2023/10/15 05:06:03;;;;;;;;;;;6.40;99.90;;;;;;4864076;29;19951;-82
2023/10/15 05:08:29;;;;;;;;;;;6.40;99.90;;;;;;4864083;29;19943;-82
2023/10/15 05:10:55;;;;;;;;;;;6.40;99.90;;;;;;4863347;29;19928;-82
2023/10/15 05:13:21;;;;;;;;;;;6.50;99.90;;;;;;4862608;29;20272;-82
2023/10/15 05:15:47;;;;;;;;;;;6.50;99.90;;;;;;4863509;29;19996;-82
2023/10/15 05:18:15;;;;;;;;;;;6.60;99.90;;;;;;4863900;29;19932;-82
2023/10/15 05:20:40;;;;;;;;;;;6.60;99.90;;;;;;4863303;29;19928;-82
2023/10/15 05:23:06;;;;;;;;;;;6.70;99.90;;;;;;4862777;29;19935;-82
2023/10/15 05:25:32;;;;;;;;;;;6.70;99.90;;;;;;4863335;29;19939;-85
2023/10/15 05:27:59;;;;;;;;;;;6.70;99.90;;;;;;4863254;29;19939;-82
2023/10/15 05:30:26;;;;;;;;;;;6.70;99.90;;;;;;4863268;29;19984;-82
2023/10/15 05:32:52;;;;;;;;;;;6.80;99.90;;;;;;4862023;29;19934;-85
2023/10/15 05:35:17;;;;;;;;;;;6.80;99.90;;;;;;4862985;29;19932;-82
2023/10/15 05:37:44;;;;;;;;;;;6.80;99.90;;;;;;4862301;29;19928;-83
2023/10/15 05:40:12;;;;;;;;;;;6.80;99.90;;;;;;4863011;29;19928;-82
2023/10/15 05:42:38;;;;;;;;;;;6.80;99.90;;;;;;4863064;29;19932;-82
2023/10/15 05:45:06;;;;;;;;;;;6.80;99.90;;;;;;4862066;29;19935;-84
2023/10/15 05:47:33;;;;;;;;;;;6.80;99.90;;;;;;4863356;29;19981;-82
2023/10/15 05:49:58;;;;;;;;;;;6.70;99.90;;;;;;4862757;29;19928;-82
2023/10/15 05:52:25;;;;;;;;;;;6.70;99.90;;;;;;4862839;29;19934;-87
2023/10/15 05:54:53;;;;;;;;;;;6.70;99.90;;;;;;4863107;29;20243;-81
2023/10/15 05:57:22;;;;;;;;;;;6.80;99.90;;;;;;4862731;29;19935;-82
2023/10/15 05:59:48;;;;;;;;;;;6.80;99.90;;;;;;4861727;29;19961;-81
2023/10/15 06:02:14;;;;;;;;;;;6.70;99.90;;;;;;4862585;29;19935;-82
2023/10/15 06:04:39;;;;;;;;;;;6.80;99.90;;;;;;4861130;29;19928;-84
2023/10/15 06:07:05;;;;;;;;;;;6.70;99.90;;;;;;4862581;29;20022;-83
2023/10/15 06:09:31;;;;;;;;;;;6.80;99.90;;;;;;4861536;29;19928;-88
2023/10/15 06:11:57;;;;;;;;;;;6.80;99.90;;;;;;4862544;29;20032;-82
2023/10/15 06:14:23;;;;;;;;;;;6.80;99.90;;;;;;4861497;29;19935;-83
2023/10/15 06:16:52;;;;;;;;;;;6.80;99.90;;;;;;4862778;29;20023;-82
2023/10/15 06:19:18;;;;;;;;;;;6.80;99.90;;;;;;4861338;29;19959;-83
2023/10/15 06:21:44;;;;;;;;;;;6.90;99.90;;;;;;4862451;29;19935;-82
2023/10/15 06:24:10;;;;;;;;;;;6.80;99.90;;;;;;4860882;29;19928;-86
2023/10/15 06:26:37;;;;;;;;;;;6.80;99.90;;;;;;4862386;29;19934;-83
2023/10/15 06:29:03;;;;;;;;;;;6.80;99.90;;;;;;4863514;29;20015;-84
2023/10/15 06:31:31;;;;;;;;;;;6.80;99.90;;;;;;4865048;29;20344;-82
2023/10/15 06:33:56;;;;;;;;;;;6.80;99.90;;;;;;4864233;29;19935;-87
2023/10/15 06:36:22;;;;;;;;;;;6.70;99.90;;;;;;4864438;29;19928;-85
2023/10/15 06:38:51;;;;;;;;;;;6.70;99.90;;;;;;4863599;29;20470;-82
2023/10/15 06:41:16;;;;;;;;;;;6.70;99.90;;;;;;4861502;29;19932;-82
2023/10/15 06:43:42;;;;;;;;;;;6.70;99.90;;;;;;4860761;29;20018;-84
2023/10/15 06:46:08;;;;;;;;;;;6.70;99.90;;;;;;4862408;29;19935;-84
2023/10/15 06:48:41;;;;;;;;;;;6.70;99.90;;;;;;4845651;29;19928;-82
2023/10/15 06:51:06;;;;;;;;;;;6.70;99.90;;;;;;4861893;29;20276;-82
2023/10/15 06:53:32;;;;;;;;;;;6.80;99.90;;;;;;4861684;29;20005;-82
2023/10/15 06:55:58;;;;;;;;;;;6.80;99.90;;;;;;4861081;29;19932;-82
2023/10/15 06:58:25;;;;;;;;;;;6.80;99.90;;;;;;4862323;29;19928;-83
2023/10/15 07:00:53;;;;;;;;;;;6.80;99.90;;;;;;4861163;29;19932;-82
2023/10/15 07:03:20;;;;;;;;;;;6.80;99.90;;;;;;4861053;29;19951;-83
2023/10/15 07:05:47;;;;;;;;;;;6.70;99.90;;;;;;4860719;29;21550;-82
2023/10/15 07:08:13;;;;;;;;;;;6.70;99.90;;;;;;4860766;29;19981;-87
2023/10/15 07:10:39;;;;;;;;;;;6.70;99.90;;;;;;4845295;29;19929;-82
2023/10/15 07:13:04;;;;;;;;;;;6.70;99.90;;;;;;4861566;29;19928;-83
2023/10/15 07:15:30;;;;;;;;;;;6.60;99.90;;;;;;4860645;29;19935;-82
2023/10/15 07:17:55;;;;;;;;;;;6.60;99.90;;;;;;4861976;29;20367;-82
2023/10/15 07:20:24;;;;;;;;;;;6.60;99.90;;;;;;4861352;29;19929;-82
2023/10/15 07:22:50;;;;;;;;;;;6.60;99.90;;;;;;4861469;29;20000;-85
2023/10/15 07:25:19;;;;;;;;;;;6.60;99.90;;;;;;4860179;29;20344;-87
2023/10/15 07:27:45;;;;;;;;;;;6.60;99.90;;;;;;4862124;29;19985;-82
2023/10/15 07:30:12;;;;;;;;;;;6.70;99.90;;;;;;4861452;29;19928;-83
2023/10/15 07:32:39;;;;;;;;;;;6.70;99.90;;;;;;4861283;29;19939;-80
2023/10/15 07:35:06;;;;;;;;;;;6.80;99.90;;;;;;4861343;29;19951;-82
2023/10/15 07:37:33;;;;;;;;;;;7.00;99.90;;;;;;4861569;29;19939;-82
2023/10/15 07:39:58;;;;;;;;;;;7.00;99.90;;;;;;4862027;29;19928;-82
2023/10/15 07:42:25;;;;;;;;;;;7.10;99.90;;;;;;4860590;29;20009;-82
2023/10/15 07:44:51;;;;;;;;;;;7.20;99.90;;;;;;4860251;29;19928;-82
2023/10/15 07:47:16;;;;;;;;;;;7.20;99.90;;;;;;4864699;29;19935;-83
2023/10/15 07:49:42;;;;;;;;;;;7.20;99.90;;;;;;4864888;29;20049;-82
2023/10/15 07:52:07;;;;;;;;;;;7.20;99.90;;;;;;4865021;29;19940;-80
2023/10/15 07:54:33;;;;;;;;;;;7.20;99.90;;;;;;4863657;29;20032;-86
2023/10/15 07:56:59;;;;;;;;;;;7.30;99.90;;;;;;4848697;29;19928;-83
2023/10/15 07:59:25;;;;;;;;;;;7.30;99.90;;;;;;4864580;29;19928;-84
2023/10/15 08:01:50;;;;;;;;;;;7.40;99.90;;;;;;4864904;29;19985;-83
2023/10/15 08:04:16;;;;;;;;;;;7.40;99.90;;;;;;4863221;29;19940;-87
2023/10/15 08:06:42;;;;;;;;;;;7.40;99.90;;;;;;4863117;29;19932;-87
2023/10/15 08:09:10;;;;;;;;;;;7.40;99.90;;;;;;4863743;29;19936;-86
2023/10/15 08:11:35;;;;;;;;;;;7.40;99.90;;;;;;4864183;29;20268;-83
2023/10/15 08:14:01;;;;;;;;;;;7.50;99.90;;;;;;4864700;29;19929;-83
2023/10/15 08:16:26;;;;;;;;;;;7.50;99.90;;;;;;4864660;29;20492;-83
2023/10/15 08:18:53;;;;;;;;;;;7.50;99.90;;;;;;4864561;29;20340;-83
2023/10/15 08:21:18;;;;;;;;;;;7.50;99.90;;;;;;4863842;29;20031;-84
2023/10/15 08:23:44;;;;;;;;;;;7.60;99.90;;;;;;4863036;29;19967;-85
2023/10/15 08:26:10;;;;;;;;;;;7.70;99.90;;;;;;4863092;29;20376;-86
2023/10/15 08:28:35;;;;;;;;;;;7.80;99.90;;;;;;4864139;29;19928;-83
2023/10/15 08:31:01;;;;;;;;;;;7.90;99.90;;;;;;4863522;29;19932;-84
2023/10/15 08:33:26;;;;;;;;;;;8.00;99.90;;;;;;4864233;29;19928;-84
2023/10/15 08:35:52;;;;;;;;;;;8.30;99.90;;;;;;4863280;29;19952;-84
2023/10/15 08:38:18;;;;;;;;;;;8.40;99.90;;;;;;4864008;29;19932;-84
2023/10/15 08:40:45;;;;;;;;;;;8.40;99.90;;;;;;4864038;29;19972;-85
2023/10/15 08:43:13;;;;;;;;;;;8.40;99.90;;;;;;4863052;29;20011;-83
2023/10/15 08:45:42;;;;;;;;;;;8.40;99.90;;;;;;4863995;29;19971;-85
2023/10/15 08:48:09;;;;;;;;;;;8.40;99.90;;;;;;4847575;29;19961;-84
2023/10/15 08:50:38;;;;;;;;;;;8.30;99.90;;;;;;4864602;29;19928;-83
2023/10/15 08:53:07;;;;;;;;;;;8.40;99.90;;;;;;4863141;29;19932;-84
2023/10/15 08:55:33;;;;;;;;;;;8.50;99.90;;;;;;4863482;29;20396;-85
2023/10/15 08:57:59;;;;;;;;;;;8.50;99.90;;;;;;4862133;29;19935;-85
2023/10/15 09:00:28;;;;;;;;;;;8.60;99.90;;;;;;4864375;29;19928;-85
2023/10/15 09:02:56;;;;;;;;;;;8.70;99.90;;;;;;4863743;29;20372;-83
2023/10/15 09:05:24;;;;;;;;;;;8.80;99.90;;;;;;4863527;29;19933;-85
2023/10/15 09:07:52;;;;;;;;;;;8.80;99.90;;;;;;4863769;29;20027;-83
2023/10/15 09:10:17;;;;;;;;;;;8.90;99.90;;;;;;4848004;29;19983;-86
2023/10/15 09:12:43;;;;;;;;;;;9.00;99.90;;;;;;4847194;29;20028;-84
2023/10/15 09:15:15;;;;;;;;;;;9.00;99.90;;;;;;4862651;29;20283;-82
2023/10/15 09:17:50;;;;;;;;;;;9.10;99.90;;;;;;4864115;29;19928;-82
2023/10/15 09:20:26;;;;;;;;;;;9.20;99.90;;;;;;4847130;29;19928;-83
2023/10/15 09:22:52;;;;;;;;;;;9.30;99.90;;;;;;4862931;29;20437;-83
2023/10/15 09:25:18;;;;;;;;;;;9.50;99.90;;;;;;4863198;29;19980;-87
2023/10/15 09:27:46;;;;;;;;;;;9.70;99.90;;;;;;4846784;29;19928;-83
2023/10/15 09:30:19;;;;;;;;;;;10.30;99.90;;;;;;4862818;29;20406;-83
2023/10/15 09:32:47;;;;;;;;;;;11.00;99.90;;;;;;4863990;29;19928;-83
2023/10/15 09:35:13;;;;;;;;;;;11.80;99.90;;;;;;4862901;29;19978;-83
2023/10/15 09:37:42;;;;;;;;;;;12.40;99.90;;;;;;4863110;29;19967;-82
2023/10/15 09:40:31;;;;;;;;;;;12.90;99.90;;;;;;4861928;29;19957;-83
2023/10/15 09:42:56;;;;;;;;;;;13.30;99.90;;;;;;4861460;29;20273;-82
2023/10/15 09:45:25;;;;;;;;;;;13.80;99.90;;;;;;4862811;29;20019;-82
2023/10/15 09:47:57;;;;;;;;;;;14.00;99.90;;;;;;4862004;29;19928;-83
2023/10/15 09:50:25;;;;;;;;;;;14.40;99.90;;;;;;4863224;29;20279;-83
2023/10/15 09:52:57;;;;;;;;;;;14.50;99.90;;;;;;4861495;29;20023;-86
2023/10/15 09:55:31;;;;;;;;;;;14.30;99.90;;;;;;4862728;29;19932;-82
2023/10/15 09:57:57;;;;;;;;;;;13.80;99.90;;;;;;4862588;29;19951;-83
2023/10/15 10:00:46;;;;;;;;;;;13.50;99.90;;;;;;4861248;29;19935;-82
2023/10/15 10:03:22;;;;;;;;;;;12.90;99.90;;;;;;4862308;29;20445;-83
2023/10/15 10:05:57;;;;;;;;;;;12.20;99.90;;;;;;4862283;29;20035;-82
2023/10/15 10:08:39;;;;;;;;;;;11.80;99.90;;;;;;4861331;29;19984;-83
2023/10/15 10:11:27;;;;;;;;;;;11.70;99.90;;;;;;4862618;29;19976;-84
2023/10/15 10:14:02;;;;;;;;;;;11.60;99.90;;;;;;4851558;29;19984;-83
2023/10/15 10:16:28;;;;;;;;;;;11.40;99.90;;;;;;4861782;29;19932;-84
2023/10/15 10:18:55;;;;;;;;;;;11.40;99.90;;;;;;4862541;29;19984;-82
2023/10/15 10:21:22;;;;;;;;;;;11.30;99.90;;;;;;4861071;29;19971;-86
2023/10/15 10:23:52;;;;;;;;;;;11.40;99.90;;;;;;4846190;29;19932;-82
2023/10/15 10:26:19;;;;;;;;;;;11.50;99.90;;;;;;4862179;29;19932;-84
2023/10/15 10:28:45;;;;;;;;;;;11.60;99.90;;;;;;4861240;29;20000;-85
2023/10/15 10:31:13;;;;;;;;;;;11.70;99.90;;;;;;4861967;29;19956;-83
2023/10/15 10:33:45;;;;;;;;;;;11.80;99.90;;;;;;4860983;29;20276;-85
2023/10/15 10:36:12;;;;;;;;;;;12.00;99.90;;;;;;4862480;29;19928;-83
2023/10/15 10:38:41;;;;;;;;;;;12.10;99.90;;;;;;4846227;29;19938;-84
2023/10/15 10:41:13;;;;;;;;;;;12.10;99.90;;;;;;4861367;29;19977;-87
2023/10/15 10:43:40;;;;;;;;;;;12.10;99.90;;;;;;4862637;29;19983;-83
2023/10/15 10:46:06;;;;;;;;;;;12.10;99.90;;;;;;4860864;29;20428;-83
2023/10/15 10:48:39;;;;;;;;;;;11.90;99.90;;;;;;4860870;29;20368;-83
2023/10/15 10:51:21;;;;;;;;;;;11.70;99.90;;;;;;4861867;29;19936;-86
2023/10/15 10:53:55;;;;;;;;;;;11.40;99.90;;;;;;4861819;29;19975;-84
2023/10/15 10:56:22;;;;;;;;;;;11.10;99.90;;;;;;4862383;29;20014;-84
2023/10/15 10:58:51;;;;;;;;;;;10.80;99.90;;;;;;4860620;29;19988;-83
2023/10/15 11:01:17;;;;;;;;;;;10.60;99.90;;;;;;4861718;29;20019;-84
2023/10/15 11:03:44;;;;;;;;;;;10.40;99.90;;;;;;4860662;29;20419;-81
2023/10/15 11:06:09;;;;;;;;;;;10.20;99.90;;;;;;4861846;29;19928;-82
2023/10/15 11:08:35;;;;;;;;;;;10.10;99.90;;;;;;4860846;29;19935;-81
2023/10/15 11:11:01;;;;;;;;;;;10.20;99.90;;;;;;4862243;29;19928;-82
2023/10/15 11:13:29;;;;;;;;;;;10.20;99.90;;;;;;4862253;29;19996;-82
2023/10/15 11:15:56;;;;;;;;;;;10.30;99.90;;;;;;4861327;29;20291;-81
2023/10/15 11:18:24;;;;;;;;;;;10.30;99.90;;;;;;4862318;29;20023;-82
2023/10/15 11:20:53;;;;;;;;;;;10.30;99.90;;;;;;4860352;29;20000;-82
2023/10/15 11:23:19;;;;;;;;;;;10.20;99.90;;;;;;4861346;29;19932;-84
2023/10/15 11:25:45;;;;;;;;;;;10.20;99.90;;;;;;4861574;29;19928;-82
2023/10/15 11:28:11;;;;;;;;;;;10.10;99.90;;;;;;4845279;29;19929;-82
2023/10/15 11:30:38;;;;;;;;;;;10.00;99.90;;;;;;4860662;29;19935;-82
2023/10/15 11:33:07;;;;;;;;;;;9.90;99.90;;;;;;4861434;29;20409;-83
2023/10/15 11:35:32;;;;;;;;;;;9.90;99.90;;;;;;4860155;29;19932;-82
2023/10/15 11:37:59;;;;;;;;;;;9.80;99.90;;;;;;4860381;29;19984;-80
2023/10/15 11:40:25;;;;;;;;;;;9.70;99.90;;;;;;4861321;29;20015;-82
2023/10/15 11:42:51;;;;;;;;;;;9.80;99.90;;;;;;4860200;29;19928;-81
2023/10/15 11:45:25;;;;;;;;;;;9.90;99.90;;;;;;4860108;29;19971;-80
2023/10/15 11:47:55;;;;;;;;;;;10.00;99.90;;;;;;4861283;29;20000;-81
2023/10/15 11:50:22;;;;;;;;;;;10.20;99.90;;;;;;4861091;29;20363;-81
2023/10/15 11:52:50;;;;;;;;;;;10.40;99.90;;;;;;4861896;29;19971;-80
2023/10/15 11:55:22;;;;;;;;;;;10.50;99.90;;;;;;4861267;29;19928;-80
2023/10/15 11:57:53;;;;;;;;;;;10.60;99.90;;;;;;4861473;29;19948;-81
2023/10/15 12:00:32;;;;;;;;;;;10.70;99.90;;;;;;4860632;29;20269;-81
2023/10/15 12:02:59;;;;;;;;;;;10.90;99.90;;;;;;4860847;29;20046;-82
2023/10/15 12:05:27;;;;;;;;;;;11.10;99.90;;;;;;4860888;29;19928;-83
2023/10/15 12:07:53;;;;;;;;;;;11.20;99.90;;;;;;4860370;29;19954;-81
2023/10/15 12:10:19;;;;;;;;;;;11.40;99.90;;;;;;4845061;29;20060;-82
2023/10/15 12:12:45;;;;;;;;;;;11.50;99.90;;;;;;4861174;29;20019;-80
2023/10/15 12:15:10;;;;;;;;;;;11.60;99.90;;;;;;4861177;29;19935;-80
2023/10/15 12:17:36;;;;;;;;;;;11.70;99.90;;;;;;4861091;29;19934;-81
2023/10/15 12:20:06;;;;;;;;;;;11.70;99.90;;;;;;4860521;29;19928;-81
2023/10/15 12:22:33;;;;;;;;;;;11.70;99.90;;;;;;4860635;29;19932;-83
2023/10/15 12:25:00;;;;;;;;;;;11.70;99.90;;;;;;4860897;29;19928;-81
2023/10/15 12:27:28;;;;;;;;;;;11.80;99.90;;;;;;4860934;29;20014;-80
2023/10/15 12:29:54;;;;;;;;;;;11.90;99.90;;;;;;4861533;29;19977;-80
2023/10/15 12:32:20;;;;;;;;;;;12.00;99.90;;;;;;4860010;29;19929;-84
2023/10/15 12:34:46;;;;;;;;;;;12.10;99.90;;;;;;4847905;29;19928;-81
2023/10/15 12:37:13;;;;;;;;;;;12.30;99.90;;;;;;4864477;29;20039;-82
2023/10/15 12:39:44;;;;;;;;;;;12.30;99.90;;;;;;4864413;29;19975;-82
2023/10/15 12:42:11;;;;;;;;;;;12.40;99.90;;;;;;4864111;29;19928;-86
2023/10/15 12:44:40;;;;;;;;;;;12.40;99.90;;;;;;4862971;29;19986;-81
2023/10/15 12:47:08;;;;;;;;;;;12.50;99.90;;;;;;4864137;29;20019;-82
2023/10/15 12:49:35;;;;;;;;;;;12.60;99.90;;;;;;4863972;29;19983;-81
2023/10/15 12:52:03;;;;;;;;;;;12.50;99.90;;;;;;4864537;29;19936;-84
2023/10/15 12:54:29;;;;;;;;;;;12.60;99.90;;;;;;4863046;29;19928;-82
2023/10/15 12:56:55;;;;;;;;;;;12.50;99.90;;;;;;4863767;29;19935;-81
2023/10/15 12:59:24;;;;;;;;;;;12.50;99.90;;;;;;4863682;29;19928;-82
2023/10/15 13:01:50;;;;;;;;;;;12.50;99.90;;;;;;4863959;29;19928;-82
2023/10/15 13:04:16;;;;;;;;;;;12.50;99.90;;;;;;4863540;29;19984;-83
2023/10/15 13:06:42;;;;;;;;;;;12.50;99.90;;;;;;4863440;29;19935;-82
2023/10/15 13:09:18;;;;;;;;;;;12.60;99.90;;;;;;4863023;29;19935;-83
2023/10/15 13:11:45;;;;;;;;;;;12.70;99.90;;;;;;4864481;29;20023;-82
2023/10/15 13:14:11;;;;;;;;;;;12.90;99.90;;;;;;4863522;29;20010;-82
2023/10/15 13:16:36;;;;;;;;;;;12.80;99.90;;;;;;4864091;29;19987;-82
2023/10/15 13:19:04;;;;;;;;;;;12.60;99.90;;;;;;4863360;29;19976;-82
2023/10/15 13:21:32;;;;;;;;;;;12.20;99.90;;;;;;4863418;29;20022;-82
2023/10/15 13:23:58;;;;;;;;;;;11.90;99.90;;;;;;4862392;29;20118;-82
2023/10/15 13:26:28;;;;;;;;;;;11.60;99.90;;;;;;4864325;29;19971;-82
2023/10/15 13:28:53;;;;;;;;;;;11.30;99.90;;;;;;4863895;29;19932;-83
2023/10/15 13:31:19;;;;;;;;;;;11.30;99.90;;;;;;4863378;29;20340;-82
2023/10/15 13:33:45;;;;;;;;;;;11.30;99.90;;;;;;4862685;29;19935;-83
2023/10/15 13:36:13;;;;;;;;;;;11.30;99.90;;;;;;4862687;29;19929;-85
2023/10/15 13:38:40;;;;;;;;;;;11.20;99.90;;;;;;4862113;29;19928;-82
2023/10/15 13:41:05;;;;;;;;;;;11.00;99.90;;;;;;4862594;29;19980;-82
2023/10/15 13:43:31;;;;;;;;;;;10.90;99.90;;;;;;4862960;29;19928;-83
2023/10/15 13:45:57;;;;;;;;;;;11.00;99.90;;;;;;4861940;29;19928;-85
2023/10/15 13:48:23;;;;;;;;;;;11.10;99.90;;;;;;4863492;29;20402;-82
2023/10/15 13:50:48;;;;;;;;;;;11.20;99.90;;;;;;4862967;29;19928;-82
2023/10/15 13:53:14;;;;;;;;;;;11.40;99.90;;;;;;4862300;29;19928;-85
2023/10/15 13:55:40;;;;;;;;;;;11.70;99.90;;;;;;4861960;29;20279;-82
2023/10/15 13:58:05;;;;;;;;;;;11.90;99.90;;;;;;4862920;29;19985;-82
2023/10/15 14:00:31;;;;;;;;;;;12.20;99.90;;;;;;4862833;29;19928;-82
2023/10/15 14:02:57;;;;;;;;;;;12.40;99.90;;;;;;4863327;29;19983;-82
2023/10/15 14:05:23;;;;;;;;;;;12.40;99.90;;;;;;4861513;29;19978;-82
2023/10/15 14:07:49;;;;;;;;;;;12.30;99.90;;;;;;4863296;29;20361;-81
2023/10/15 14:10:18;;;;;;;;;;;12.20;99.90;;;;;;4861727;29;19985;-83
2023/10/15 14:12:44;;;;;;;;;;;12.20;99.90;;;;;;4861958;29;19954;-83
2023/10/15 14:15:10;;;;;;;;;;;12.20;99.90;;;;;;4861703;29;19935;-82
2023/10/15 14:17:39;;;;;;;;;;;12.20;99.90;;;;;;4862472;29;19935;-82
2023/10/15 14:20:09;;;;;;;;;;;12.20;99.90;;;;;;4863194;29;20011;-83
2023/10/15 14:22:38;;;;;;;;;;;12.20;99.90;;;;;;4862604;29;19928;-82
2023/10/15 14:25:04;;;;;;;;;;;12.10;99.90;;;;;;4861193;29;19935;-82
2023/10/15 14:27:29;;;;;;;;;;;12.10;99.90;;;;;;4845816;29;19928;-82
2023/10/15 14:29:55;;;;;;;;;;;12.10;99.90;;;;;;4862305;29;20031;-83
2023/10/15 14:32:21;;;;;;;;;;;12.00;99.90;;;;;;4862224;29;20288;-84
2023/10/15 14:34:46;;;;;;;;;;;12.00;99.90;;;;;;4861146;29;19971;-82
2023/10/15 14:37:12;;;;;;;;;;;11.70;99.90;;;;;;4862159;29;19957;-83
2023/10/15 14:39:37;;;;;;;;;;;11.50;99.90;;;;;;4861052;29;20257;-84
2023/10/15 14:42:05;;;;;;;;;;;11.30;99.90;;;;;;4861783;29;19982;-83
2023/10/15 14:44:30;;;;;;;;;;;11.10;99.90;;;;;;4845361;29;19956;-87
2023/10/15 14:46:56;;;;;;;;;;;11.00;99.90;;;;;;4861812;29;19932;-84
2023/10/15 14:49:22;;;;;;;;;;;10.90;99.90;;;;;;4860706;29;19990;-83